Time;durP1;ratioP1;P1;durP2;ratioP2;P2;SDS_P1;SDS_P2;PMS_P1;PMS_P2;Temp;Humidity;BMP_temperature;BMP_pressure;BME280_temperature;BME280_humidity;BME280_pressure;Samples;Min_cycle;Max_cycle;Signal;HPM_P1;HPM_P2
2024/03/19 00:01:49;;;;;;;;;;;;;;;18.60;59.30;100452.47;7390473;19;1854;-35
2024/03/19 00:04:18;;;;;;;;;;;;;;;18.49;59.37;100440.06;7388340;19;1677;-36
2024/03/19 00:06:47;;;;;;;;;;;;;;;18.62;59.11;100432.63;7387172;19;1873;-35
2024/03/19 00:09:15;;;;;;;;;;;;;;;18.63;59.28;100455.72;7390067;19;1523;-36
2024/03/19 00:11:46;;;;;;;;;;;;;;;18.66;58.90;100442.06;7389635;19;1568;-36
2024/03/19 00:14:15;;;;;;;;;;;;;;;18.61;59.38;100452.34;7390313;19;1406;-36
2024/03/19 00:16:43;;;;;;;;;;;;;;;18.62;59.18;100437.97;7374807;19;1449;-36
2024/03/19 00:19:12;;;;;;;;;;;;;;;18.67;58.95;100430.34;7388316;19;1437;-36
2024/03/19 00:21:41;;;;;;;;;;;;;;;18.63;59.17;100441.50;7389025;19;1555;-36
2024/03/19 00:24:10;;;;;;;;;;;;;;;18.49;59.19;100408.78;7389074;19;1157;-36
2024/03/19 00:26:39;;;;;;;;;;;;;;;18.63;59.22;100433.47;7389109;19;1865;-36
2024/03/19 00:29:11;;;;;;;;;;;;;;;18.55;59.38;100446.72;7391134;19;1318;-35
2024/03/19 00:31:39;;;;;;;;;;;;;;;18.60;58.92;100450.66;7388150;19;1561;-36
2024/03/19 00:34:08;;;;;;;;;;;;;;;18.62;59.26;100448.69;7388257;19;1618;-35
2024/03/19 00:36:37;;;;;;;;;;;;;;;18.57;59.06;100439.38;7387987;19;2513;-35
2024/03/19 00:39:10;;;;;;;;;;;;;;;18.60;59.24;100439.06;7385802;19;1527;-35
2024/03/19 00:41:38;;;;;;;;;;;;;;;18.55;59.28;100436.00;7388701;19;1359;-35
2024/03/19 00:44:08;;;;;;;;;;;;;;;18.54;59.36;100432.44;7388960;19;1386;-36
2024/03/19 00:46:39;;;;;;;;;;;;;;;18.64;59.01;100441.34;7387989;19;1846;-36
2024/03/19 00:49:08;;;;;;;;;;;;;;;18.65;59.00;100431.47;7387404;19;1425;-36
2024/03/19 00:51:36;;;;;;;;;;;;;;;18.53;59.31;100444.16;7389287;19;1450;-36
2024/03/19 00:54:05;;;;;;;;;;;;;;;18.51;59.06;100438.09;7389021;19;1484;-35
2024/03/19 00:56:33;;;;;;;;;;;;;;;18.58;59.20;100420.50;7388470;19;1124;-35
2024/03/19 00:59:02;;;;;;;;;;;;;;;18.61;59.18;100422.88;7388869;19;1445;-35
2024/03/19 01:01:31;;;;;;;;;;;;;;;18.61;58.92;100444.31;7387221;19;1512;-35
2024/03/19 01:04:04;;;;;;;;;;;;;;;18.59;59.10;100421.34;7387311;19;1570;-35
2024/03/19 01:06:33;;;;;;;;;;;;;;;18.45;59.28;100427.97;7388272;19;1786;-36
2024/03/19 01:09:05;;;;;;;;;;;;;;;18.57;59.11;100444.72;7385715;19;1885;-36
2024/03/19 01:11:34;;;;;;;;;;;;;;;18.56;59.14;100432.31;7387734;19;1841;-36
2024/03/19 01:14:02;;;;;;;;;;;;;;;18.55;59.15;100439.50;7387297;19;1525;-36
2024/03/19 01:16:31;;;;;;;;;;;;;;;18.60;59.01;100436.41;7372905;19;1601;-36
2024/03/19 01:19:02;;;;;;;;;;;;;;;18.51;59.11;100418.53;7386285;19;1500;-36
2024/03/19 01:21:30;;;;;;;;;;;;;;;18.53;59.14;100412.03;7388134;19;1683;-36
2024/03/19 01:23:59;;;;;;;;;;;;;;;18.60;58.91;100431.91;7387535;19;1571;-36
2024/03/19 01:26:27;;;;;;;;;;;;;;;18.53;59.04;100429.94;7387991;19;1323;-40
2024/03/19 01:28:56;;;;;;;;;;;;;;;18.55;59.02;100427.97;7383982;19;1891;-36
2024/03/19 01:31:28;;;;;;;;;;;;;;;18.50;59.17;100425.69;7387038;19;1513;-36
2024/03/19 01:33:57;;;;;;;;;;;;;;;18.61;58.76;100414.00;7387522;19;1499;-36
2024/03/19 01:36:28;;;;;;;;;;;;;;;18.56;59.14;100426.97;7388201;19;1338;-36
2024/03/19 01:38:56;;;;;;;;;;;;;;;18.50;59.02;100428.38;7387729;19;1489;-36
2024/03/19 01:41:25;;;;;;;;;;;;;;;18.55;58.81;100423.44;7387274;19;1519;-36
2024/03/19 01:43:53;;;;;;;;;;;;;;;18.54;58.81;100411.03;7387219;19;1429;-36
2024/03/19 01:46:29;;;;;;;;;;;;;;;18.43;58.98;100424.56;7386973;19;1731;-36
2024/03/19 01:48:58;;;;;;;;;;;;;;;18.40;59.06;100411.44;7384003;19;1858;-36
2024/03/19 01:51:29;;;;;;;;;;;;;;;18.34;59.56;100426.25;7390817;19;1735;-38
2024/03/19 01:53:59;;;;;;;;;;;;;;;18.37;59.30;100403.72;7394940;19;1555;-36
2024/03/19 01:56:27;;;;;;;;;;;;;;;18.34;59.33;100406.66;7394828;19;1264;-36
2024/03/19 01:58:56;;;;;;;;;;;;;;;18.36;59.47;100389.47;7393848;19;1354;-36
2024/03/19 02:01:25;;;;;;;;;;;;;;;18.29;59.35;100415.97;7393048;19;1141;-36
2024/03/19 02:03:54;;;;;;;;;;;;;;;18.30;59.49;100398.06;7393558;19;1778;-36
2024/03/19 02:06:22;;;;;;;;;;;;;;;18.43;59.60;100406.66;7393663;19;1196;-36
2024/03/19 02:09:05;;;;;;;;;;;;;;;18.93;58.64;100408.34;7390769;19;1845;-36
2024/03/19 02:11:34;;;;;;;;;;;;;;;19.42;57.63;100403.72;7393798;19;1492;-36
2024/03/19 02:14:04;;;;;;;;;;;;;;;19.66;57.03;100410.38;7393738;19;1730;-36
2024/03/19 02:16:32;;;;;;;;;;;;;;;19.73;56.76;100416.88;7376763;19;2327;-36
2024/03/19 02:19:03;;;;;;;;;;;;;;;19.79;56.80;100416.25;7392289;19;1718;-36
2024/03/19 02:21:33;;;;;;;;;;;;;;;19.91;56.46;100414.22;7393074;19;1421;-36
2024/03/19 02:24:04;;;;;;;;;;;;;;;19.99;56.48;100417.00;7393172;19;1754;-36
2024/03/19 02:26:33;;;;;;;;;;;;;;;19.95;56.39;100420.16;7393169;19;1393;-36
2024/03/19 02:29:02;;;;;;;;;;;;;;;19.98;56.31;100426.06;7390592;19;1854;-36
2024/03/19 02:31:31;;;;;;;;;;;;;;;20.01;56.40;100432.97;7391891;19;1603;-36
2024/03/19 02:33:57;;;;;;;;;;;;;;;20.01;56.34;100428.44;7390609;19;1524;-36
2024/03/19 02:36:26;;;;;;;;;;;;;;;20.03;56.15;100430.97;7393933;19;1432;-35
2024/03/19 02:38:54;;;;;;;;;;;;;;;20.06;56.16;100430.69;7392053;19;1804;-35
2024/03/19 02:41:25;;;;;;;;;;;;;;;20.13;56.05;100429.06;7392734;19;1774;-35
2024/03/19 02:43:54;;;;;;;;;;;;;;;20.19;55.84;100427.63;7393362;19;1540;-35
2024/03/19 02:46:24;;;;;;;;;;;;;;;20.23;55.90;100427.19;7391961;19;1496;-36
2024/03/19 02:48:52;;;;;;;;;;;;;;;20.29;55.80;100422.19;7390214;19;1870;-37
2024/03/19 02:51:21;;;;;;;;;;;;;;;20.24;55.79;100430.72;7392364;19;2003;-36
2024/03/19 02:53:49;;;;;;;;;;;;;;;20.29;55.85;100432.94;7392844;19;1049;-36
2024/03/19 02:56:18;;;;;;;;;;;;;;;20.33;55.70;100439.69;7391856;19;1746;-36
2024/03/19 02:58:49;;;;;;;;;;;;;;;20.32;55.75;100435.31;7392502;19;1481;-37
2024/03/19 03:01:18;;;;;;;;;;;;;;;20.29;55.98;100443.66;7392129;19;1763;-36
2024/03/19 03:03:46;;;;;;;;;;;;;;;20.34;55.88;100442.22;7386661;19;1166;-36
2024/03/19 03:06:14;;;;;;;;;;;;;;;20.37;55.81;100441.06;7391216;19;1410;-37
2024/03/19 03:08:43;;;;;;;;;;;;;;;20.35;55.75;100443.94;7388782;19;1866;-36
2024/03/19 03:11:12;;;;;;;;;;;;;;;20.32;55.96;100443.38;7390634;19;1672;-36
2024/03/19 03:13:40;;;;;;;;;;;;;;;20.30;55.94;100434.63;7390531;19;1449;-36
2024/03/19 03:16:11;;;;;;;;;;;;;;;20.33;56.12;100443.19;7392155;19;1702;-35
2024/03/19 03:18:40;;;;;;;;;;;;;;;20.36;56.11;100434.03;7376814;19;1592;-35
2024/03/19 03:21:08;;;;;;;;;;;;;;;20.38;55.94;100440.09;7391800;19;1804;-35
2024/03/19 03:23:37;;;;;;;;;;;;;;;20.35;55.95;100451.13;7392126;19;1122;-35
2024/03/19 03:26:06;;;;;;;;;;;;;;;20.41;56.06;100437.94;7391651;19;1448;-36
2024/03/19 03:28:34;;;;;;;;;;;;;;;20.51;55.89;100440.53;7387764;19;2198;-36
2024/03/19 03:31:04;;;;;;;;;;;;;;;20.55;55.61;100449.13;7392137;19;1560;-36
2024/03/19 03:33:35;;;;;;;;;;;;;;;20.51;55.61;100450.44;7387899;19;2473;-35
2024/03/19 03:36:04;;;;;;;;;;;;;;;20.50;55.98;100449.59;7391028;19;1766;-36
2024/03/19 03:38:32;;;;;;;;;;;;;;;20.50;55.85;100449.59;7391555;19;1846;-36
2024/03/19 03:41:07;;;;;;;;;;;;;;;20.50;55.93;100463.03;7390259;19;1719;-35
2024/03/19 03:43:36;;;;;;;;;;;;;;;20.51;55.88;100459.31;7390526;19;1775;-36
2024/03/19 03:46:04;;;;;;;;;;;;;;;20.53;55.80;100461.88;7387112;19;1764;-35
2024/03/19 03:48:35;;;;;;;;;;;;;;;20.50;55.93;100454.97;7389861;19;1846;-36
2024/03/19 03:51:04;;;;;;;;;;;;;;;20.54;55.73;100459.03;7391347;19;1116;-36
2024/03/19 03:53:32;;;;;;;;;;;;;;;20.51;55.88;100470.06;7390301;19;1762;-35
2024/03/19 03:56:01;;;;;;;;;;;;;;;20.50;55.99;100456.81;7389021;19;1600;-35
2024/03/19 03:58:29;;;;;;;;;;;;;;;20.49;55.86;100458.63;7390789;19;1679;-35
2024/03/19 04:00:58;;;;;;;;;;;;;;;20.22;56.34;100471.13;7389618;19;1668;-36
2024/03/19 04:03:27;;;;;;;;;;;;;;;19.91;57.17;100480.47;7389763;19;1750;-36
2024/03/19 04:05:58;;;;;;;;;;;;;;;19.74;57.49;100474.06;7388407;19;1571;-36
2024/03/19 04:08:26;;;;;;;;;;;;;;;19.60;57.72;100481.56;7389084;19;1846;-36
2024/03/19 04:10:55;;;;;;;;;;;;;;;19.52;57.77;100478.78;7387678;19;1318;-36
2024/03/19 04:13:23;;;;;;;;;;;;;;;19.48;57.76;100486.25;7388729;19;1489;-36
2024/03/19 04:15:52;;;;;;;;;;;;;;;19.47;57.85;100487.22;7389695;19;1608;-38
2024/03/19 04:18:21;;;;;;;;;;;;;;;19.42;57.85;100492.19;7373169;19;1571;-37
2024/03/19 04:20:52;;;;;;;;;;;;;;;19.37;57.83;100491.78;7390783;19;1106;-36
2024/03/19 04:23:23;;;;;;;;;;;;;;;19.34;57.72;100502.81;7390837;19;1111;-36
2024/03/19 04:25:51;;;;;;;;;;;;;;;19.22;58.06;100506.66;7388922;19;1740;-36
2024/03/19 04:28:20;;;;;;;;;;;;;;;19.32;58.32;100512.84;7388616;19;1845;-36
2024/03/19 04:30:48;;;;;;;;;;;;;;;19.38;58.41;100519.47;7389560;19;1117;-36
2024/03/19 04:33:17;;;;;;;;;;;;;;;19.42;58.28;100521.69;7388806;19;1441;-36
2024/03/19 04:35:45;;;;;;;;;;;;;;;19.54;58.13;100513.50;7389328;19;1849;-36
2024/03/19 04:38:15;;;;;;;;;;;;;;;19.65;57.87;100524.03;7388774;19;1485;-36
2024/03/19 04:40:46;;;;;;;;;;;;;;;19.69;57.64;100522.75;7388359;19;1738;-36
2024/03/19 04:43:16;;;;;;;;;;;;;;;19.67;57.67;100508.63;7389881;19;1812;-36
2024/03/19 04:45:44;;;;;;;;;;;;;;;19.70;57.74;100516.41;7387262;19;1782;-36
2024/03/19 04:48:13;;;;;;;;;;;;;;;19.74;57.64;100525.88;7386860;19;1864;-36
2024/03/19 04:50:41;;;;;;;;;;;;;;;19.81;57.48;100526.97;7388209;19;1309;-36
2024/03/19 04:53:10;;;;;;;;;;;;;;;19.77;57.54;100530.94;7387742;19;1942;-36
2024/03/19 04:55:38;;;;;;;;;;;;;;;19.74;57.63;100535.78;7387678;19;1241;-36
2024/03/19 04:58:09;;;;;;;;;;;;;;;19.75;57.92;100538.28;7387046;19;1374;-36
2024/03/19 05:00:38;;;;;;;;;;;;;;;19.77;58.02;100538.16;7388119;19;1616;-35
2024/03/19 05:03:07;;;;;;;;;;;;;;;19.74;57.89;100574.19;7387389;19;1442;-36
2024/03/19 05:05:35;;;;;;;;;;;;;;;19.71;57.93;100536.91;7387634;19;1714;-36
2024/03/19 05:08:04;;;;;;;;;;;;;;;19.79;57.76;100550.41;7388267;19;1862;-36
2024/03/19 05:10:32;;;;;;;;;;;;;;;19.74;57.96;100541.97;7386309;19;1319;-36
2024/03/19 05:13:00;;;;;;;;;;;;;;;19.70;57.79;100551.28;7386622;19;1466;-36
2024/03/19 05:15:32;;;;;;;;;;;;;;;19.65;58.11;100558.91;7383777;19;1415;-36
2024/03/19 05:18:00;;;;;;;;;;;;;;;19.60;58.36;100566.56;7369838;19;1476;-36
2024/03/19 05:20:28;;;;;;;;;;;;;;;19.51;58.21;100567.41;7387582;19;1877;-36
2024/03/19 05:22:57;;;;;;;;;;;;;;;19.46;58.64;100555.28;7385608;19;1500;-37
2024/03/19 05:25:25;;;;;;;;;;;;;;;19.47;58.48;100551.59;7385012;19;1520;-36
2024/03/19 05:27:55;;;;;;;;;;;;;;;19.48;58.48;100564.03;7383826;19;1396;-36
2024/03/19 05:30:23;;;;;;;;;;;;;;;19.54;58.44;100567.13;7381756;19;1838;-37
2024/03/19 05:32:54;;;;;;;;;;;;;;;19.54;58.47;100554.56;7384384;19;1421;-39
2024/03/19 05:35:23;;;;;;;;;;;;;;;19.52;58.41;100586.06;7387590;19;1798;-35
2024/03/19 05:37:52;;;;;;;;;;;;;;;19.52;58.59;100590.53;7386144;19;1444;-41
2024/03/19 05:40:20;;;;;;;;;;;;;;;19.56;58.29;100581.25;7386879;19;1461;-39
2024/03/19 05:42:49;;;;;;;;;;;;;;;19.48;58.34;100590.84;7382091;19;1688;-36
2024/03/19 05:45:18;;;;;;;;;;;;;;;19.51;58.42;100588.88;7383354;19;1615;-36
2024/03/19 05:47:47;;;;;;;;;;;;;;;19.57;58.44;100589.13;7385285;19;1108;-35
2024/03/19 05:50:18;;;;;;;;;;;;;;;19.59;58.26;100581.78;7383586;19;1848;-36
2024/03/19 05:52:46;;;;;;;;;;;;;;;19.61;58.06;100595.91;7383188;19;1789;-35
2024/03/19 05:55:15;;;;;;;;;;;;;;;19.59;58.17;100587.16;7385044;19;1505;-36
2024/03/19 05:57:43;;;;;;;;;;;;;;;19.55;58.25;100596.47;7387529;19;1500;-35
2024/03/19 06:00:14;;;;;;;;;;;;;;;19.52;58.49;100596.78;7388325;19;1679;-36
2024/03/19 06:02:40;;;;;;;;;;;;;;;19.51;58.37;100604.97;7389253;19;1702;-36
2024/03/19 06:05:10;;;;;;;;;;;;;;;19.45;58.64;100609.88;7388291;19;1537;-35
2024/03/19 06:07:41;;;;;;;;;;;;;;;19.50;58.53;100605.94;7390817;19;1765;-35
2024/03/19 06:10:11;;;;;;;;;;;;;;;19.48;58.33;100608.78;7386257;19;1867;-35
2024/03/19 06:12:39;;;;;;;;;;;;;;;19.50;58.61;100616.66;7387898;19;1037;-35
2024/03/19 06:15:09;;;;;;;;;;;;;;;19.51;58.31;100611.16;7387427;19;1928;-35
2024/03/19 06:17:38;;;;;;;;;;;;;;;19.53;58.34;100619.06;7372579;19;1810;-35
2024/03/19 06:20:14;;;;;;;;;;;;;;;19.53;58.37;100611.03;7386579;19;1702;-35
2024/03/19 06:22:46;;;;;;;;;;;;;;;19.51;58.31;100629.09;7386580;19;1680;-36
2024/03/19 06:25:12;;;;;;;;;;;;;;;19.48;58.45;100617.66;7386894;19;1562;-36
2024/03/19 06:27:41;;;;;;;;;;;;;;;19.52;58.29;100630.78;7386435;19;1492;-35
2024/03/19 06:30:10;;;;;;;;;;;;;;;19.56;58.22;100640.25;7383572;19;1888;-36
2024/03/19 06:32:38;;;;;;;;;;;;;;;19.53;58.34;100637.84;7384497;19;1757;-36
2024/03/19 06:35:07;;;;;;;;;;;;;;;19.51;58.35;100642.50;7384723;19;1533;-36
2024/03/19 06:37:36;;;;;;;;;;;;;;;19.51;58.36;100648.72;7387149;19;1575;-36
2024/03/19 06:40:08;;;;;;;;;;;;;;;19.48;58.34;100657.06;7390956;19;1508;-40
2024/03/19 06:42:37;;;;;;;;;;;;;;;19.46;58.46;100661.72;7392722;19;1475;-36
2024/03/19 06:45:08;;;;;;;;;;;;;;;19.47;58.40;100669.59;7393852;19;1727;-36
2024/03/19 06:47:37;;;;;;;;;;;;;;;19.44;58.33;100683.31;7394002;19;1120;-36
2024/03/19 06:50:06;;;;;;;;;;;;;;;19.44;58.47;100664.53;7391436;19;1897;-36
2024/03/19 06:52:35;;;;;;;;;;;;;;;19.47;58.35;100666.91;7392819;19;1728;-36
2024/03/19 06:55:03;;;;;;;;;;;;;;;19.54;58.15;100666.38;7391562;19;1651;-36
2024/03/19 06:57:34;;;;;;;;;;;;;;;19.51;58.32;100674.69;7392406;19;1488;-36
2024/03/19 07:00:05;;;;;;;;;;;;;;;19.53;58.23;100683.44;7390649;19;1581;-37
2024/03/19 07:02:34;;;;;;;;;;;;;;;19.41;58.42;100702.34;7379203;19;1798;-37
2024/03/19 07:05:03;;;;;;;;;;;;;;;19.35;58.49;100692.19;7388070;19;1489;-37
2024/03/19 07:07:31;;;;;;;;;;;;;;;19.28;58.77;100697.25;7388086;19;1516;-37
2024/03/19 07:10:00;;;;;;;;;;;;;;;19.19;59.04;100707.97;7389566;19;1850;-37
2024/03/19 07:12:29;;;;;;;;;;;;;;;19.23;58.73;100699.50;7389077;19;1445;-37
2024/03/19 07:15:03;;;;;;;;;;;;;;;19.20;58.70;100715.00;7391720;19;1663;-37
2024/03/19 07:17:32;;;;;;;;;;;;;;;19.19;58.75;100711.47;7379073;19;1064;-37
2024/03/19 07:20:01;;;;;;;;;;;;;;;19.11;58.79;100724.72;7390470;19;1844;-37
2024/03/19 07:22:30;;;;;;;;;;;;;;;19.10;59.07;100725.72;7390724;19;1398;-37
2024/03/19 07:24:58;;;;;;;;;;;;;;;19.17;58.78;100726.03;7388067;19;1457;-37
2024/03/19 07:27:26;;;;;;;;;;;;;;;19.32;58.68;100718.41;7390484;19;1545;-37
2024/03/19 07:29:55;;;;;;;;;;;;;;;19.52;58.16;100717.47;7390384;19;1845;-37
2024/03/19 07:32:26;;;;;;;;;;;;;;;19.70;57.38;100728.34;7382308;19;1588;-37
2024/03/19 07:34:55;;;;;;;;;;;;;;;19.94;56.87;100725.25;7387573;19;1548;-37
2024/03/19 07:37:23;;;;;;;;;;;;;;;19.79;57.27;100738.25;7385637;19;1820;-37
2024/03/19 07:39:52;;;;;;;;;;;;;;;19.60;57.64;100747.13;7387799;19;1227;-37
2024/03/19 07:42:20;;;;;;;;;;;;;;;19.44;58.01;100787.91;7386525;19;1255;-37
2024/03/19 07:44:49;;;;;;;;;;;;;;;19.36;58.22;100757.38;7385206;19;1493;-37
2024/03/19 07:47:18;;;;;;;;;;;;;;;19.04;58.46;100735.16;7384894;19;1260;-37
2024/03/19 07:49:49;;;;;;;;;;;;;;;19.21;58.33;100765.81;7384493;19;1862;-37
2024/03/19 07:52:17;;;;;;;;;;;;;;;19.24;58.35;100786.16;7389792;19;1742;-37
2024/03/19 07:54:47;;;;;;;;;;;;;;;19.19;57.93;100777.66;7390202;19;1682;-38
2024/03/19 07:57:15;;;;;;;;;;;;;;;19.03;58.46;100780.84;7390367;19;1462;-37
2024/03/19 07:59:44;;;;;;;;;;;;;;;19.13;58.12;100788.94;7390680;19;1501;-37
2024/03/19 08:02:12;;;;;;;;;;;;;;;19.42;57.52;100797.91;7390691;19;1480;-37
2024/03/19 08:04:40;;;;;;;;;;;;;;;19.48;56.35;100783.09;7390216;19;1387;-43
2024/03/19 08:07:12;;;;;;;;;;;;;;;19.75;55.40;100782.44;7391043;19;1103;-37
2024/03/19 08:09:40;;;;;;;;;;;;;;;19.57;55.74;100797.50;7389891;19;1859;-37
2024/03/19 08:12:09;;;;;;;;;;;;;;;19.44;55.99;100790.56;7389244;19;1870;-37
2024/03/19 08:14:37;;;;;;;;;;;;;;;19.37;56.36;100802.81;7389684;19;1829;-37
2024/03/19 08:17:06;;;;;;;;;;;;;;;19.25;56.75;100787.84;7389626;19;1175;-37
2024/03/19 08:19:36;;;;;;;;;;;;;;;19.19;56.43;100815.19;7374918;19;1758;-37
2024/03/19 08:22:05;;;;;;;;;;;;;;;19.20;56.62;100808.84;7389355;19;1536;-38
2024/03/19 08:24:37;;;;;;;;;;;;;;;19.12;56.40;100816.69;7388978;19;1406;-37
2024/03/19 08:27:06;;;;;;;;;;;;;;;19.29;56.00;100808.03;7388619;19;1386;-37
2024/03/19 08:29:35;;;;;;;;;;;;;;;19.38;55.88;100815.25;7384320;19;1842;-36
2024/03/19 08:32:04;;;;;;;;;;;;;;;19.46;55.77;100812.75;7383534;19;2529;-36
2024/03/19 08:34:32;;;;;;;;;;;;;;;19.56;55.38;100817.28;7381759;19;1816;-36
2024/03/19 08:37:03;;;;;;;;;;;;;;;19.71;55.00;100810.53;7385567;19;1587;-36
2024/03/19 08:39:31;;;;;;;;;;;;;;;19.71;55.10;100818.59;7385497;19;1624;-36
2024/03/19 08:42:02;;;;;;;;;;;;;;;19.75;54.93;100829.91;7389223;19;1082;-36
2024/03/19 08:44:31;;;;;;;;;;;;;;;19.77;55.07;100831.47;7390141;19;1006;-36
2024/03/19 08:47:01;;;;;;;;;;;;;;;19.75;55.00;100820.00;7387759;19;1263;-36
2024/03/19 08:49:30;;;;;;;;;;;;;;;19.79;55.06;100826.78;7389680;19;1854;-36
2024/03/19 08:51:59;;;;;;;;;;;;;;;19.78;55.14;100821.59;7390717;19;1049;-36
2024/03/19 08:54:27;;;;;;;;;;;;;;;19.82;54.92;100836.44;7385853;19;1939;-36
2024/03/19 08:56:56;;;;;;;;;;;;;;;19.88;54.75;100822.44;7387181;19;1604;-36
2024/03/19 08:59:27;;;;;;;;;;;;;;;19.91;54.80;100840.09;7389963;19;1015;-36
2024/03/19 09:01:56;;;;;;;;;;;;;;;19.90;54.96;100841.94;7388854;19;1103;-46
2024/03/19 09:04:24;;;;;;;;;;;;;;;19.94;54.88;100837.16;7388717;19;1434;-36
2024/03/19 09:06:53;;;;;;;;;;;;;;;19.95;54.81;100855.78;7388681;19;1920;-36
2024/03/19 09:09:21;;;;;;;;;;;;;;;19.94;54.92;100853.25;7388279;19;1842;-36
2024/03/19 09:11:51;;;;;;;;;;;;;;;19.91;54.98;100853.50;7389153;19;1674;-36
2024/03/19 09:14:20;;;;;;;;;;;;;;;19.94;54.81;100861.31;7389344;19;1557;-36
2024/03/19 09:16:51;;;;;;;;;;;;;;;19.93;54.79;100855.06;7386329;19;2421;-36
2024/03/19 09:19:20;;;;;;;;;;;;;;;19.94;54.86;100858.63;7373325;19;1255;-36
2024/03/19 09:21:49;;;;;;;;;;;;;;;19.92;54.97;100853.38;7386508;19;1448;-36
2024/03/19 09:24:18;;;;;;;;;;;;;;;19.89;55.02;100845.59;7388315;19;1778;-36
2024/03/19 09:26:46;;;;;;;;;;;;;;;19.91;54.93;100846.31;7389065;19;1800;-36
2024/03/19 09:29:15;;;;;;;;;;;;;;;19.91;54.96;100865.09;7386473;19;2322;-36
2024/03/19 09:31:43;;;;;;;;;;;;;;;19.91;55.17;100854.34;7383458;19;1847;-36
2024/03/19 09:34:14;;;;;;;;;;;;;;;19.94;54.93;100867.50;7384305;19;1772;-36
2024/03/19 09:36:43;;;;;;;;;;;;;;;19.96;54.86;100878.97;7387154;19;1453;-36
2024/03/19 09:39:13;;;;;;;;;;;;;;;19.94;55.02;100870.19;7386120;19;1506;-36
2024/03/19 09:41:44;;;;;;;;;;;;;;;19.95;55.06;100884.47;7388294;19;900;-36
2024/03/19 09:44:16;;;;;;;;;;;;;;;19.95;55.06;100876.41;7388051;19;1041;-36
2024/03/19 09:46:45;;;;;;;;;;;;;;;19.99;54.94;100877.81;7387490;19;1826;-36
2024/03/19 09:49:19;;;;;;;;;;;;;;;19.97;54.91;100887.84;7384910;19;1810;-36
2024/03/19 09:51:48;;;;;;;;;;;;;;;19.95;55.05;100887.97;7384052;19;1847;-36
2024/03/19 09:54:16;;;;;;;;;;;;;;;19.93;55.07;100883.75;7386807;19;1605;-36
2024/03/19 09:56:47;;;;;;;;;;;;;;;19.95;55.19;100884.47;7387882;19;1105;-36
2024/03/19 09:59:17;;;;;;;;;;;;;;;19.96;55.22;100894.22;7387205;19;1041;-36
2024/03/19 10:01:45;;;;;;;;;;;;;;;20.02;54.97;100904.41;7387320;19;1770;-39
2024/03/19 10:04:18;;;;;;;;;;;;;;;19.99;55.01;100888.56;7386533;19;1565;-36
2024/03/19 10:06:47;;;;;;;;;;;;;;;19.99;54.91;100893.94;7384348;19;1821;-36
2024/03/19 10:09:16;;;;;;;;;;;;;;;19.99;55.06;100900.13;7387150;19;1829;-36
2024/03/19 10:11:45;;;;;;;;;;;;;;;20.03;54.87;100908.75;7385097;19;1848;-41
2024/03/19 10:14:15;;;;;;;;;;;;;;;20.01;55.03;100894.63;7393300;19;1757;-36
2024/03/19 10:16:45;;;;;;;;;;;;;;;20.04;54.93;100918.53;7394704;19;1079;-36
2024/03/19 10:19:16;;;;;;;;;;;;;;;20.00;55.04;100901.00;7376954;19;1833;-36
2024/03/19 10:21:47;;;;;;;;;;;;;;;20.08;54.98;100908.38;7393307;19;1498;-36
2024/03/19 10:24:16;;;;;;;;;;;;;;;20.05;54.93;100904.97;7393021;19;1330;-36
2024/03/19 10:26:46;;;;;;;;;;;;;;;20.09;54.98;100904.69;7394031;19;1675;-36
2024/03/19 10:29:15;;;;;;;;;;;;;;;20.04;54.98;100891.69;7394744;19;1078;-36
2024/03/19 10:31:46;;;;;;;;;;;;;;;20.03;54.95;100898.91;7389659;19;1850;-36
2024/03/19 10:34:18;;;;;;;;;;;;;;;20.06;54.90;100901.28;7390901;19;1789;-36
2024/03/19 10:36:50;;;;;;;;;;;;;;;20.06;54.85;100893.22;7393205;19;1498;-36
2024/03/19 10:39:19;;;;;;;;;;;;;;;20.08;54.88;100903.84;7394990;19;1745;-36
2024/03/19 10:41:51;;;;;;;;;;;;;;;20.04;55.02;100891.69;7393394;19;1750;-36
2024/03/19 10:44:21;;;;;;;;;;;;;;;20.09;54.99;100904.69;7394524;19;1059;-37
2024/03/19 10:46:50;;;;;;;;;;;;;;;20.08;55.08;100901.16;7393567;19;1838;-35
2024/03/19 10:49:21;;;;;;;;;;;;;;;19.89;54.98;100856.34;7390252;19;1739;-36
2024/03/19 10:51:55;;;;;;;;;;;;;;;20.13;54.89;100900.72;7389990;19;1865;-35
2024/03/19 10:54:25;;;;;;;;;;;;;;;20.14;54.76;100903.28;7391603;19;1758;-35
2024/03/19 10:56:55;;;;;;;;;;;;;;;20.11;54.89;100908.91;7392562;19;1519;-36
2024/03/19 10:59:23;;;;;;;;;;;;;;;20.08;55.06;100898.47;7389704;19;2480;-36
2024/03/19 11:01:53;;;;;;;;;;;;;;;20.07;55.17;100904.81;7390907;19;1149;-36
2024/03/19 11:04:25;;;;;;;;;;;;;;;20.11;55.10;100900.84;7391042;19;1800;-35
2024/03/19 11:06:59;;;;;;;;;;;;;;;20.09;54.97;100900.16;7392685;19;1428;-36
2024/03/19 11:09:29;;;;;;;;;;;;;;;20.10;55.02;100901.03;7393001;19;1873;-35
2024/03/19 11:11:58;;;;;;;;;;;;;;;20.09;55.06;100910.88;7390195;19;1863;-36
2024/03/19 11:14:27;;;;;;;;;;;;;;;20.08;55.09;100911.06;7392491;19;1821;-45
2024/03/19 11:16:56;;;;;;;;;;;;;;;20.03;55.28;100895.34;7392579;19;1817;-35
2024/03/19 11:19:25;;;;;;;;;;;;;;;20.10;55.13;100893.81;7379043;19;1595;-36
2024/03/19 11:21:55;;;;;;;;;;;;;;;20.09;55.08;100910.88;7391215;19;1845;-36
2024/03/19 11:24:29;;;;;;;;;;;;;;;20.10;55.04;100909.06;7391667;19;1811;-35
2024/03/19 11:27:00;;;;;;;;;;;;;;;20.09;54.91;100900.16;7391056;19;1820;-40
2024/03/19 11:29:31;;;;;;;;;;;;;;;20.13;54.93;100906.94;7392765;19;1303;-35
2024/03/19 11:31:59;;;;;;;;;;;;;;;20.04;55.08;100905.09;7387534;19;1861;-36
2024/03/19 11:34:29;;;;;;;;;;;;;;;20.02;55.25;100894.50;7390429;19;1556;-36
2024/03/19 11:36:58;;;;;;;;;;;;;;;20.07;55.02;100902.13;7391122;19;1805;-36
2024/03/19 11:39:30;;;;;;;;;;;;;;;20.08;55.03;100903.84;7386645;19;1420;-36
2024/03/19 11:41:58;;;;;;;;;;;;;;;20.09;55.18;100894.78;7391549;19;1627;-36
2024/03/19 11:44:27;;;;;;;;;;;;;;;20.12;55.17;100894.50;7393194;19;1083;-36
2024/03/19 11:46:56;;;;;;;;;;;;;;;20.13;55.01;100896.19;7392700;19;1067;-35
2024/03/19 11:49:23;;;;;;;;;;;;;;;20.15;54.92;100910.31;7389542;19;1685;-36
2024/03/19 11:51:57;;;;;;;;;;;;;;;20.19;54.95;100897.47;7388769;19;1871;-36
2024/03/19 11:54:25;;;;;;;;;;;;;;;20.15;54.85;100883.47;7391190;19;1592;-36
2024/03/19 11:56:57;;;;;;;;;;;;;;;20.10;55.07;100893.81;7393661;19;1767;-36
2024/03/19 11:59:26;;;;;;;;;;;;;;;20.11;54.94;100895.50;7394776;19;1003;-36
2024/03/19 12:01:56;;;;;;;;;;;;;;;20.13;54.99;100906.94;7394565;19;1012;-36
2024/03/19 12:04:25;;;;;;;;;;;;;;;20.10;54.94;100899.19;7393159;19;1732;-35
2024/03/19 12:06:54;;;;;;;;;;;;;;;20.15;54.79;100904.97;7392979;19;1714;-36
2024/03/19 12:09:25;;;;;;;;;;;;;;;20.14;54.97;100903.28;7392880;19;1751;-36
2024/03/19 12:11:54;;;;;;;;;;;;;;;20.05;55.22;100915.72;7391985;19;1851;-36
2024/03/19 12:14:25;;;;;;;;;;;;;;;20.09;55.25;100910.88;7392944;19;1350;-39
2024/03/19 12:16:55;;;;;;;;;;;;;;;20.09;55.15;100902.84;7390312;19;1710;-36
2024/03/19 12:19:24;;;;;;;;;;;;;;;20.10;55.04;100906.41;7375618;19;1707;-36
2024/03/19 12:21:55;;;;;;;;;;;;;;;20.10;55.24;100898.34;7391285;19;1564;-36
2024/03/19 12:24:23;;;;;;;;;;;;;;;20.15;55.12;100904.97;7388933;19;1731;-36
2024/03/19 12:26:52;;;;;;;;;;;;;;;20.13;54.96;100917.69;7390389;19;1639;-36
2024/03/19 12:29:21;;;;;;;;;;;;;;;20.20;54.88;100923.34;7390684;19;999;-36
2024/03/19 12:31:59;;;;;;;;;;;;;;;20.16;55.04;100912.03;7388536;19;1880;-36
2024/03/19 12:34:48;;;;;;;;;;;;;;;20.21;54.97;100914.31;7387835;19;1809;-36
2024/03/19 12:37:18;;;;;;;;;;;;;;;20.15;55.05;100904.13;7390125;19;1465;-36
2024/03/19 12:39:47;;;;;;;;;;;;;;;20.19;55.04;100910.91;7390080;19;1821;-36
2024/03/19 12:42:17;;;;;;;;;;;;;;;20.13;55.05;100906.94;7388810;19;1624;-35
2024/03/19 12:44:50;;;;;;;;;;;;;;;20.16;55.16;100914.72;7388680;19;1930;-36
2024/03/19 12:47:22;;;;;;;;;;;;;;;20.16;54.98;100911.19;7390187;19;1108;-36
2024/03/19 12:49:51;;;;;;;;;;;;;;;20.11;54.95;100911.59;7388409;19;1932;-36
2024/03/19 12:52:21;;;;;;;;;;;;;;;20.13;55.17;100903.41;7387020;19;1850;-36
2024/03/19 12:54:50;;;;;;;;;;;;;;;20.12;55.13;100909.78;7389205;19;1679;-36
2024/03/19 12:57:19;;;;;;;;;;;;;;;20.15;54.93;100915.69;7387976;19;1667;-36
2024/03/19 12:59:47;;;;;;;;;;;;;;;20.17;55.05;100911.03;7386792;19;1861;-36